Time;durP1;ratioP1;P1;durP2;ratioP2;P2;SDS_P1;SDS_P2;PMS_P1;PMS_P2;Temp;Humidity;BMP_temperature;BMP_pressure;BME280_temperature;BME280_humidity;BME280_pressure;Samples;Min_cycle;Max_cycle;Signal;HPM_P1;HPM_P2
2024/02/20 00:00:14;;;;;;;4.63;2.63;;;;;;;-145.69;66.64;52309.72;5113837;28;20189;-79
2024/02/20 00:02:43;;;;;;;7.93;2.57;;;;;;;-145.69;66.73;52343.38;5114172;27;20225;-79
2024/02/20 00:05:09;;;;;;;4.67;2.53;;;;;;;-145.69;66.53;52305.75;5114031;28;20197;-79
2024/02/20 00:07:36;;;;;;;10.43;2.67;;;;;;;-145.69;66.71;52303.78;5113359;28;20197;-80
2024/02/20 00:10:03;;;;;;;4.73;2.43;;;;;;;-145.69;66.83;52301.81;5113899;28;20198;-80
2024/02/20 00:12:29;;;;;;;4.93;2.83;;;;;;;-145.69;67.59;52317.66;5114085;28;20205;-80
2024/02/20 00:14:57;;;;;;;7.17;2.83;;;;;;;-145.69;67.63;52329.53;5113801;28;20205;-81
2024/02/20 00:17:24;;;;;;;5.90;2.80;;;;;;;-145.69;66.78;52357.25;5113909;27;20233;-80
2024/02/20 00:19:52;;;;;;;4.20;2.43;;;;;;;-145.69;67.18;52325.56;5113762;28;20208;-80
2024/02/20 00:22:19;;;;;;;4.53;2.80;;;;;;;-145.69;67.09;52297.84;5113770;28;20243;-80
2024/02/20 00:24:45;;;;;;;5.73;2.60;;;;;;;-145.69;67.34;52375.06;5113684;28;20201;-80
2024/02/20 00:27:11;;;;;;;4.77;2.70;;;;;;;-145.69;67.27;52309.72;5113560;28;20201;-80
2024/02/20 00:29:38;;;;;;;6.40;2.90;;;;;;;-145.69;68.12;52315.66;5112797;28;20446;-80
2024/02/20 00:32:05;;;;;;;3.50;2.40;;;;;;;-145.69;67.53;52365.16;5113760;28;20197;-80
2024/02/20 00:34:32;;;;;;;5.23;2.53;;;;;;;-145.69;67.07;52325.56;5113327;28;20552;-80
2024/02/20 00:36:59;;;;;;;3.40;2.17;;;;;;;-145.69;67.17;52315.66;5113129;28;20196;-79
2024/02/20 00:39:27;;;;;;;7.47;2.93;;;;;;;-145.69;67.33;52325.56;5113392;28;20224;-79
2024/02/20 00:41:53;;;;;;;4.80;2.60;;;;;;;-145.69;67.25;52325.56;5113393;28;20201;-80
2024/02/20 00:44:20;;;;;;;4.30;2.30;;;;;;;-145.69;67.52;52321.59;5113423;28;20250;-80
2024/02/20 00:46:46;;;;;;;5.27;2.50;;;;;;;-145.69;67.68;52345.38;5113328;28;20189;-80
2024/02/20 00:49:12;;;;;;;3.93;2.43;;;;;;;-145.69;67.25;52299.81;5113210;28;20241;-79
2024/02/20 00:51:39;;;;;;;2.83;2.23;;;;;;;-145.69;67.78;52313.69;5113118;28;20255;-79
2024/02/20 00:54:07;;;;;;;6.37;2.20;;;;;;;-145.69;67.18;52349.31;5113271;28;20656;-79
2024/02/20 00:56:33;;;;;;;4.43;2.80;;;;;;;-145.69;67.50;52305.75;5113016;28;20204;-81
2024/02/20 00:59:02;;;;;;;4.83;2.33;;;;;;;-145.69;67.48;52357.25;5113049;28;20647;-80
2024/02/20 01:01:28;;;;;;;4.30;2.27;;;;;;;-145.69;67.46;52329.53;5091646;28;20198;-80
2024/02/20 01:03:55;;;;;;;3.53;2.00;;;;;;;-145.69;67.52;52321.59;5101645;28;20282;-80
2024/02/20 01:06:21;;;;;;;3.20;2.43;;;;;;;-145.69;67.42;52355.28;5112582;28;20194;-81
2024/02/20 01:08:48;;;;;;;3.60;2.47;;;;;;;-145.69;67.40;52381.00;5113394;28;20197;-79
2024/02/20 01:11:16;;;;;;;4.83;2.90;;;;;;;-145.69;67.05;52325.56;5113229;28;20644;-80
2024/02/20 01:13:42;;;;;;;3.10;2.00;;;;;;;-145.69;67.01;52313.69;5112883;28;20205;-80
2024/02/20 01:16:09;;;;;;;3.70;2.30;;;;;;;-145.69;67.40;52381.00;5112046;28;20192;-79
2024/02/20 01:18:37;;;;;;;5.67;2.07;;;;;;;-145.69;67.45;52335.47;5111828;28;20610;-81
2024/02/20 01:21:04;;;;;;;3.53;1.97;;;;;;;-145.69;67.32;52355.28;5111777;28;20213;-80
2024/02/20 01:23:30;;;;;;;3.40;2.07;;;;;;;-145.69;66.85;52329.53;5112280;28;20221;-80
2024/02/20 01:25:57;;;;;;;3.37;2.10;;;;;;;-145.69;66.66;52319.63;5113028;28;20193;-81
2024/02/20 01:28:25;;;;;;;5.00;2.20;;;;;;;-145.69;66.75;52321.59;5112966;28;20193;-80
2024/02/20 01:30:51;;;;;;;5.30;1.80;;;;;;;-145.69;66.90;52293.88;5112956;28;20197;-79
2024/02/20 01:33:18;;;;;;;4.17;2.20;;;;;;;-145.69;67.03;52319.63;5112811;27;20652;-79
2024/02/20 01:35:45;;;;;;;3.03;2.00;;;;;;;-145.69;67.53;52345.38;5112184;28;20201;-80
2024/02/20 01:38:12;;;;;;;3.83;2.00;;;;;;;-145.69;67.62;52345.38;5112311;28;20190;-80
2024/02/20 01:40:39;;;;;;;2.70;1.77;;;;;;;-145.69;67.12;52325.56;5112994;28;20201;-80
2024/02/20 01:43:06;;;;;;;2.90;2.00;;;;;;;-145.69;67.11;52345.38;5112402;28;20224;-79
2024/02/20 01:45:34;;;;;;;2.50;1.80;;;;;;;-145.69;66.90;52337.44;5112070;28;20590;-80
2024/02/20 01:48:02;;;;;;;4.37;1.70;;;;;;;-145.69;67.00;52325.56;5112776;28;20208;-80
2024/02/20 01:50:33;;;;;;;3.67;1.90;;;;;;;-145.69;66.97;52321.59;5112349;27;20237;-81
2024/02/20 01:52:59;;;;;;;3.83;2.10;;;;;;;-145.69;67.37;52331.50;5112526;28;20300;-79
2024/02/20 01:55:26;;;;;;;3.17;2.33;;;;;;;-145.69;67.23;52345.38;5112822;28;20622;-80
2024/02/20 01:57:53;;;;;;;4.57;2.13;;;;;;;-145.69;66.83;52347.34;5112289;28;20251;-81
2024/02/20 02:00:19;;;;;;;3.10;1.80;;;;;;;-145.69;66.55;52317.66;5112414;28;20201;-81
2024/02/20 02:02:47;;;;;;;2.70;2.03;;;;;;;-145.69;67.10;52341.41;5112354;28;20687;-80
2024/02/20 02:05:14;;;;;;;3.70;1.90;;;;;;;-145.69;66.78;52313.69;5112302;28;20435;-80
2024/02/20 02:07:40;;;;;;;2.30;1.70;;;;;;;-145.69;66.35;52325.56;5112279;28;20204;-80
2024/02/20 02:10:08;;;;;;;2.13;1.50;;;;;;;-145.69;67.16;52325.56;5112467;28;20194;-80
2024/02/20 02:12:34;;;;;;;2.60;1.67;;;;;;;-145.69;67.47;52315.66;5114182;28;20197;-81
2024/02/20 02:15:01;;;;;;;2.17;1.73;;;;;;;-145.69;67.38;52305.75;5116597;28;20250;-80
2024/02/20 02:17:27;;;;;;;3.73;1.70;;;;;;;-145.69;67.72;52355.28;5116026;28;20201;-80
2024/02/20 02:19:55;;;;;;;2.40;1.50;;;;;;;-145.69;67.83;52341.41;5115865;28;20231;-80
2024/02/20 02:22:22;;;;;;;2.20;1.50;;;;;;;-145.69;67.48;52315.66;5115996;28;20659;-80
2024/02/20 02:24:48;;;;;;;2.37;1.67;;;;;;;-145.69;67.60;52297.84;5116548;28;20233;-79
2024/02/20 02:27:16;;;;;;;2.10;1.53;;;;;;;-145.69;67.54;52333.47;5115799;28;20193;-79
2024/02/20 02:29:42;;;;;;;5.00;1.80;;;;;;;-145.69;67.90;52345.38;5115956;28;20201;-80
2024/02/20 02:32:09;;;;;;;2.83;1.80;;;;;;;-145.69;67.65;52315.66;5115435;28;20204;-80
2024/02/20 02:34:36;;;;;;;3.87;1.60;;;;;;;-145.69;67.40;52335.47;5115976;28;20212;-80
2024/02/20 02:37:02;;;;;;;2.83;1.60;;;;;;;-145.69;67.40;52339.44;5115618;28;20221;-80
2024/02/20 02:39:29;;;;;;;1.70;1.40;;;;;;;-145.69;67.26;52329.53;5115442;28;20213;-80
2024/02/20 02:41:55;;;;;;;2.47;1.63;;;;;;;-145.69;67.18;52351.31;5115821;28;20209;-80
2024/02/20 02:44:23;;;;;;;4.83;1.90;;;;;;;-145.69;66.93;52335.47;5115927;28;20225;-79
2024/02/20 02:46:50;;;;;;;3.43;2.20;;;;;;;-145.69;66.91;52335.47;5115259;28;20663;-80
2024/02/20 02:49:16;;;;;;;5.43;2.20;;;;;;;-145.69;67.15;52333.47;5115392;28;20233;-79
2024/02/20 02:51:42;;;;;;;2.47;1.83;;;;;;;-145.69;67.50;52321.59;5115638;28;20200;-79
2024/02/20 02:54:09;;;;;;;3.60;2.03;;;;;;;-145.69;67.10;52327.53;5115533;27;20205;-79
2024/02/20 02:56:36;;;;;;;3.43;2.10;;;;;;;-145.69;66.95;52315.66;5115326;27;20196;-80
2024/02/20 02:59:04;;;;;;;4.73;2.10;;;;;;;-145.69;66.98;52321.59;5114731;28;20616;-80
2024/02/20 03:01:32;;;;;;;5.53;1.83;;;;;;;-145.69;67.05;52333.47;5115257;28;20205;-80
2024/02/20 03:03:59;;;;;;;3.17;2.17;;;;;;;-145.69;67.90;52331.50;5115347;28;20228;-80
2024/02/20 03:06:26;;;;;;;3.30;2.27;;;;;;;-145.69;68.15;52331.50;5114548;28;20213;-79
2024/02/20 03:08:53;;;;;;;2.33;1.93;;;;;;;-145.69;68.79;52341.41;5115552;28;20215;-80
2024/02/20 03:11:19;;;;;;;3.13;2.07;;;;;;;-145.69;68.31;52343.38;5115610;28;20201;-80
2024/02/20 03:13:46;;;;;;;3.00;1.90;;;;;;;-145.69;68.50;52333.47;5115289;28;20206;-80
2024/02/20 03:16:13;;;;;;;4.73;2.07;;;;;;;-145.69;68.14;52341.41;5114867;28;20288;-79
2024/02/20 03:18:42;;;;;;;3.63;2.03;;;;;;;-145.69;68.85;52345.38;5114968;28;20197;-79
2024/02/20 03:21:09;;;;;;;3.50;2.20;;;;;;;-145.69;68.37;52343.38;5114484;27;20663;-79
2024/02/20 03:23:35;;;;;;;4.77;2.57;;;;;;;-145.69;68.58;52315.66;5114387;28;20222;-79
2024/02/20 03:26:03;;;;;;;3.73;2.10;;;;;;;-145.69;68.57;52305.75;5114332;28;20201;-80
2024/02/20 03:28:30;;;;;;;4.23;2.30;;;;;;;-145.69;68.77;52353.28;5114911;28;20205;-80
2024/02/20 03:30:56;;;;;;;5.27;2.53;;;;;;;-145.69;68.45;52345.38;5114921;28;20292;-80
2024/02/20 03:33:25;;;;;;;4.37;2.20;;;;;;;-145.69;68.55;52293.88;5114377;28;20261;-80
2024/02/20 03:35:53;;;;;;;3.50;2.27;;;;;;;-145.69;68.57;52319.63;5114669;28;20193;-80
2024/02/20 03:38:20;;;;;;;5.87;2.60;;;;;;;-145.69;68.50;52337.44;5114682;28;20201;-80
2024/02/20 03:40:47;;;;;;;2.97;2.33;;;;;;;-145.69;68.35;52323.59;5114730;28;20233;-81
2024/02/20 03:43:13;;;;;;;4.27;2.53;;;;;;;-145.69;68.10;52335.47;5114312;28;20282;-80
2024/02/20 03:45:40;;;;;;;6.00;2.43;;;;;;;-145.69;69.12;52319.63;5114306;28;20646;-80
2024/02/20 03:48:07;;;;;;;3.97;2.73;;;;;;;-145.69;68.65;52341.41;5114334;28;20202;-80
2024/02/20 03:50:33;;;;;;;5.23;2.67;;;;;;;-145.69;68.53;52355.28;5114443;28;20290;-80
2024/02/20 03:53:01;;;;;;;3.87;2.67;;;;;;;-145.69;67.60;52305.75;5114488;28;20201;-80
2024/02/20 03:55:28;;;;;;;4.17;2.53;;;;;;;-145.69;67.28;52317.66;5114275;28;20614;-79
2024/02/20 03:57:54;;;;;;;5.93;2.60;;;;;;;-145.69;68.14;52345.38;5114405;28;20250;-79
2024/02/20 04:00:24;;;;;;;3.90;2.33;;;;;;;-145.69;67.96;52347.34;5114177;28;20200;-80
2024/02/20 04:02:53;;;;;;;5.67;2.97;;;;;;;-145.69;67.38;52317.66;5113755;28;20236;-80
2024/02/20 04:05:19;;;;;;;4.33;1.60;;;;;;;-145.69;72.46;52345.38;5113525;28;20245;-80
2024/02/20 04:07:46;;;;;;;6.43;2.10;;;;;;;-145.69;70.03;52341.41;5113965;28;20205;-79
2024/02/20 04:10:16;;;;;;;3.13;1.47;;;;;;;-145.69;70.42;52323.59;5114138;28;20220;-78
2024/02/20 04:12:42;;;;;;;4.03;1.87;;;;;;;-145.69;71.28;52295.84;5114086;28;20624;-79
2024/02/20 04:15:11;;;;;;;4.23;2.00;;;;;;;-145.69;71.32;52343.38;5113861;28;20532;-82
2024/02/20 04:17:37;;;;;;;3.83;2.37;;;;;;;-145.69;72.44;52323.59;5113976;28;20204;-80
2024/02/20 04:20:05;;;;;;;4.53;2.70;;;;;;;-145.69;72.10;52331.50;5114066;27;20606;-81
2024/02/20 04:22:32;;;;;;;11.87;2.97;;;;;;;-145.69;72.56;52359.22;5113824;28;20251;-80
2024/02/20 04:24:59;;;;;;;6.53;3.10;;;;;;;-145.69;72.99;52353.28;5113816;28;20232;-80
2024/02/20 04:27:27;;;;;;;6.70;3.30;;;;;;;-145.69;72.81;52309.72;5113559;28;20216;-80
2024/02/20 04:29:54;;;;;;;9.53;3.67;;;;;;;-145.69;72.79;52335.47;5113541;28;20606;-81
2024/02/20 04:32:20;;;;;;;6.00;3.20;;;;;;;-145.69;71.99;52333.47;5113356;27;20659;-80
2024/02/20 04:34:47;;;;;;;4.83;3.10;;;;;;;-145.69;73.16;52357.25;5113271;28;20204;-81
2024/02/20 04:37:15;;;;;;;5.90;3.80;;;;;;;-145.69;72.81;52331.50;5113040;28;20792;-80
2024/02/20 04:39:43;;;;;;;11.00;3.13;;;;;;;-145.69;72.97;52353.28;5113556;28;20193;-80
2024/02/20 04:42:10;;;;;;;5.43;3.07;;;;;;;-145.69;72.89;52335.47;5113527;28;20205;-80
2024/02/20 04:44:37;;;;;;;7.67;3.03;;;;;;;-145.69;73.20;52361.22;5113987;28;20229;-79
2024/02/20 04:47:04;;;;;;;4.47;3.03;;;;;;;-145.69;72.58;52377.06;5113191;28;20225;-80
2024/02/20 04:49:31;;;;;;;5.93;3.17;;;;;;;-145.69;72.78;52369.13;5113119;28;20699;-79
2024/02/20 04:51:57;;;;;;;8.67;3.47;;;;;;;-145.69;72.95;52341.41;5112740;28;20648;-80
2024/02/20 04:54:23;;;;;;;10.40;3.57;;;;;;;-145.69;72.46;52386.97;5113414;28;20246;-79
2024/02/20 04:56:50;;;;;;;7.90;3.10;;;;;;;-145.69;72.72;52379.03;5113292;28;20201;-79
2024/02/20 04:59:16;;;;;;;7.80;2.90;;;;;;;-145.69;72.84;52331.50;5112851;28;20197;-79
2024/02/20 05:01:44;;;;;;;11.10;3.13;;;;;;;-145.69;72.54;52341.41;5113427;28;20204;-79
2024/02/20 05:04:10;;;;;;;10.20;3.30;;;;;;;-145.69;72.86;52345.38;5112874;28;20221;-80
2024/02/20 05:06:37;;;;;;;10.53;3.30;;;;;;;-145.69;73.37;52369.13;5112738;28;20213;-80
2024/02/20 05:09:03;;;;;;;6.13;3.80;;;;;;;-145.69;72.78;52369.13;5113073;28;20250;-80
2024/02/20 05:11:30;;;;;;;11.33;4.00;;;;;;;-145.69;73.12;52341.41;5112967;28;20640;-80
2024/02/20 05:13:56;;;;;;;8.67;3.90;;;;;;;-145.69;72.58;52361.22;5113098;28;20247;-80
2024/02/20 05:16:23;;;;;;;12.47;3.57;;;;;;;-145.69;72.59;52337.44;5110573;27;20201;-79
2024/02/20 05:18:50;;;;;;;7.27;3.40;;;;;;;-145.69;73.12;52365.16;5112585;28;20197;-79
2024/02/20 05:21:17;;;;;;;10.23;3.50;;;;;;;-145.69;72.29;52363.19;5113069;28;20197;-80
2024/02/20 05:23:43;;;;;;;8.37;3.63;;;;;;;-145.69;72.46;52359.22;5112919;28;20227;-81
2024/02/20 05:26:10;;;;;;;10.90;4.17;;;;;;;-145.69;71.96;52355.28;5112129;28;20197;-80
2024/02/20 05:28:36;;;;;;;9.57;3.50;;;;;;;-145.69;72.26;52359.22;5113167;28;20208;-79
2024/02/20 05:31:21;;;;;;;8.77;2.67;;;;;;;-145.69;72.21;52333.47;5112776;28;20671;-79
2024/02/20 05:33:47;;;;;;;7.80;3.17;;;;;;;-145.69;71.83;52355.28;5112388;28;20239;-79
2024/02/20 05:36:15;;;;;;;9.50;3.10;;;;;;;-145.69;71.96;52357.25;5112336;28;20201;-79
2024/02/20 05:38:41;;;;;;;10.77;2.90;;;;;;;-145.69;71.84;52345.38;5112774;28;20683;-79
2024/02/20 05:41:08;;;;;;;9.83;3.00;;;;;;;-145.69;71.87;52353.28;5112602;28;20193;-80
2024/02/20 05:43:34;;;;;;;8.63;2.77;;;;;;;-145.69;71.88;52365.16;5112738;28;20205;-79
2024/02/20 05:46:00;;;;;;;9.70;3.57;;;;;;;-145.69;71.22;52337.44;5112552;28;20197;-79
2024/02/20 05:48:27;;;;;;;10.07;2.97;;;;;;;-145.69;71.11;52375.06;5116791;28;20204;-79
2024/02/20 05:50:53;;;;;;;10.53;3.37;;;;;;;-145.69;70.68;52361.22;5116507;28;20229;-79
2024/02/20 05:53:21;;;;;;;8.33;3.20;;;;;;;-145.69;70.65;52365.16;5116764;28;20641;-79
2024/02/20 05:55:48;;;;;;;16.47;3.43;;;;;;;-145.69;70.44;52361.22;5116588;28;20215;-79
2024/02/20 05:58:14;;;;;;;10.67;2.70;;;;;;;-145.69;70.07;52353.28;5116666;28;20209;-79
2024/02/20 06:00:41;;;;;;;12.90;3.10;;;;;;;-145.69;69.93;52357.25;5116755;28;20193;-80
2024/02/20 06:03:07;;;;;;;8.23;3.07;;;;;;;-145.69;70.41;52363.19;5116105;28;20186;-79
2024/02/20 06:05:34;;;;;;;8.47;3.47;;;;;;;-145.69;70.63;52345.38;5115532;28;20217;-79
2024/02/20 06:08:01;;;;;;;13.50;3.37;;;;;;;-145.69;70.92;52341.41;5116691;28;20201;-79
2024/02/20 06:10:29;;;;;;;10.33;3.10;;;;;;;-145.69;70.41;52321.59;5116224;28;20198;-80
2024/02/20 06:12:55;;;;;;;10.13;3.60;;;;;;;-145.69;70.97;52301.81;5116147;28;20258;-79
2024/02/20 06:15:22;;;;;;;12.10;3.80;;;;;;;-145.69;70.78;52375.06;5116103;28;20258;-79
2024/02/20 06:17:49;;;;;;;10.63;3.67;;;;;;;-145.69;70.82;52325.56;5116485;28;20197;-79
2024/02/20 06:20:16;;;;;;;12.73;3.40;;;;;;;-145.69;70.51;52361.22;5115694;28;20670;-79
2024/02/20 06:22:42;;;;;;;10.77;3.70;;;;;;;-145.69;70.16;52373.09;5116073;28;20808;-78
2024/02/20 06:25:09;;;;;;;6.97;3.47;;;;;;;-145.69;70.54;52400.81;5115952;28;20221;-80
2024/02/20 06:27:38;;;;;;;8.67;3.30;;;;;;;-145.69;70.55;52381.00;5116105;28;20212;-79
2024/02/20 06:30:08;;;;;;;9.83;3.60;;;;;;;-145.69;70.54;52365.16;5115817;28;20201;-80
2024/02/20 06:32:34;;;;;;;9.50;3.63;;;;;;;-145.69;70.26;52347.34;5116011;28;20258;-80
2024/02/20 06:35:01;;;;;;;5.77;2.73;;;;;;;-145.69;69.73;52341.41;5115687;28;20602;-78
2024/02/20 06:37:28;;;;;;;9.03;3.93;;;;;;;-145.69;70.50;52365.16;5115437;28;20678;-79
2024/02/20 06:39:54;;;;;;;9.40;3.03;;;;;;;-145.69;70.12;52379.03;5115791;28;20258;-79
2024/02/20 06:42:22;;;;;;;10.53;3.17;;;;;;;-145.69;70.09;52363.19;5115999;27;20201;-79
2024/02/20 06:44:49;;;;;;;11.70;3.90;;;;;;;-145.69;69.91;52365.16;5115254;28;20232;-80
2024/02/20 06:47:16;;;;;;;10.73;2.80;;;;;;;-145.69;70.16;52341.41;5115413;28;20201;-80
2024/02/20 06:49:42;;;;;;;7.10;3.13;;;;;;;-145.69;70.35;52392.91;5114923;27;20278;-80
2024/02/20 06:52:09;;;;;;;6.37;2.70;;;;;;;-145.69;70.07;52355.28;5115561;28;20669;-80
2024/02/20 06:54:35;;;;;;;7.23;3.00;;;;;;;-145.69;69.74;52381.00;5115470;27;20197;-81
2024/02/20 06:57:02;;;;;;;8.10;3.13;;;;;;;-145.69;70.53;52359.22;5115473;27;20660;-79
2024/02/20 06:59:28;;;;;;;10.73;3.17;;;;;;;-145.69;70.16;52373.09;5114159;28;20559;-80
2024/02/20 07:01:56;;;;;;;10.17;3.17;;;;;;;-145.69;70.48;52365.16;5115153;28;20224;-80
2024/02/20 07:04:22;;;;;;;9.07;3.80;;;;;;;-145.69;70.25;52361.22;5114800;27;20585;-79
2024/02/20 07:06:49;;;;;;;9.53;3.13;;;;;;;-145.69;70.48;52361.22;5115402;28;20686;-79
2024/02/20 07:09:15;;;;;;;10.97;3.27;;;;;;;-145.69;70.96;52355.28;5115463;28;20243;-78
2024/02/20 07:11:45;;;;;;;8.97;3.23;;;;;;;-145.69;70.65;52365.16;5115392;28;20201;-79
2024/02/20 07:14:12;;;;;;;11.17;3.20;;;;;;;-145.69;70.73;52365.16;5114280;27;20200;-79
2024/02/20 07:16:39;;;;;;;11.10;3.60;;;;;;;-145.69;70.65;52351.31;5114938;28;20205;-78
2024/02/20 07:19:06;;;;;;;13.33;3.30;;;;;;;-145.69;70.70;52390.91;5115217;28;20193;-78
2024/02/20 07:21:33;;;;;;;12.87;3.30;;;;;;;-145.69;70.55;52353.28;5115018;28;20198;-79
2024/02/20 07:23:59;;;;;;;10.30;3.63;;;;;;;-145.69;71.11;52388.94;5115050;28;20220;-79
2024/02/20 07:26:26;;;;;;;7.70;3.40;;;;;;;-145.69;70.62;52408.75;5114633;28;20194;-79
2024/02/20 07:28:53;;;;;;;9.83;3.40;;;;;;;-145.69;70.94;52367.16;5114702;27;20202;-78
2024/02/20 07:31:21;;;;;;;10.03;3.47;;;;;;;-145.69;71.14;52373.09;5114546;28;20197;-79
2024/02/20 07:33:48;;;;;;;7.70;2.77;;;;;;;-145.69;70.76;52353.28;5114673;28;20197;-79
2024/02/20 07:36:16;;;;;;;13.37;4.10;;;;;;;-145.69;71.39;52373.09;5114077;28;20658;-79
2024/02/20 07:38:43;;;;;;;13.27;3.60;;;;;;;-145.69;70.97;52369.13;5114783;28;20236;-79
2024/02/20 07:41:10;;;;;;;9.73;3.37;;;;;;;-145.69;71.54;52375.06;5114660;28;20209;-79
2024/02/20 07:43:37;;;;;;;8.30;3.07;;;;;;;-145.69;72.23;52375.06;5114235;28;20204;-79
2024/02/20 07:46:04;;;;;;;14.20;3.83;;;;;;;-145.69;72.21;52337.44;5114498;28;20691;-78
2024/02/20 07:48:30;;;;;;;15.50;4.07;;;;;;;-145.69;72.05;52373.09;5114404;28;20651;-81
2024/02/20 07:50:56;;;;;;;15.37;4.20;;;;;;;-145.69;71.17;52355.28;5114216;28;20225;-80
2024/02/20 07:53:24;;;;;;;13.07;4.13;;;;;;;-145.69;72.28;52353.28;5114039;28;20206;-79
2024/02/20 07:55:51;;;;;;;18.50;4.40;;;;;;;-145.69;71.82;52363.19;5114347;28;20201;-79
2024/02/20 07:58:17;;;;;;;9.80;3.67;;;;;;;-145.69;72.45;52337.44;5113915;28;20197;-78
2024/02/20 08:00:44;;;;;;;19.13;4.53;;;;;;;-145.69;71.05;52335.47;5114511;28;20205;-79
2024/02/20 08:03:12;;;;;;;13.37;4.17;;;;;;;-145.69;70.85;52325.56;5114197;28;20198;-78
2024/02/20 08:05:40;;;;;;;11.90;3.90;;;;;;;-145.69;70.45;52345.38;5114278;28;20255;-79
2024/02/20 08:08:07;;;;;;;13.97;4.20;;;;;;;-145.69;70.67;52371.13;5113897;28;20194;-78
2024/02/20 08:10:35;;;;;;;13.83;3.90;;;;;;;-145.69;69.55;52335.47;5113872;28;20201;-78
2024/02/20 08:13:02;;;;;;;12.17;3.70;;;;;;;-145.69;71.03;52333.47;5113631;28;20206;-79
2024/02/20 08:15:29;;;;;;;12.83;3.90;;;;;;;-145.69;70.53;52329.53;5114023;28;20244;-78
2024/02/20 08:17:55;;;;;;;10.33;3.57;;;;;;;-145.69;71.43;52333.47;5113965;28;20205;-78
2024/02/20 08:20:22;;;;;;;14.27;3.87;;;;;;;-145.69;71.17;52331.50;5113755;28;20201;-78
2024/02/20 08:22:48;;;;;;;13.80;4.03;;;;;;;-145.69;69.46;52309.72;5113838;28;20193;-78
2024/02/20 08:25:15;;;;;;;11.50;3.50;;;;;;;-145.69;69.78;52315.66;5113146;28;20217;-79
2024/02/20 08:27:43;;;;;;;10.40;4.00;;;;;;;-145.69;70.86;52386.97;5113619;28;20204;-79
2024/02/20 08:30:10;;;;;;;20.53;4.00;;;;;;;-145.69;68.51;52333.47;5113255;28;20229;-79
2024/02/20 08:32:43;;;;;;;10.40;3.43;;;;;;;-145.69;70.84;52345.38;5113478;28;20291;-79
2024/02/20 08:35:10;;;;;;;18.20;4.17;;;;;;;-145.69;69.86;52357.25;5112971;28;20295;-79
2024/02/20 08:37:36;;;;;;;13.47;3.40;;;;;;;-145.69;70.13;52333.47;5113286;28;20648;-79
2024/02/20 08:40:03;;;;;;;14.53;3.50;;;;;;;-145.69;70.04;52337.44;5113593;28;20258;-79
2024/02/20 08:42:29;;;;;;;10.23;3.60;;;;;;;-145.69;68.76;52343.38;5113582;28;20716;-79
2024/02/20 08:44:57;;;;;;;14.07;4.07;;;;;;;-145.69;69.68;52333.47;5113233;28;20229;-79
2024/02/20 08:47:23;;;;;;;18.80;3.70;;;;;;;-145.69;69.42;52329.53;5113688;28;20209;-79
2024/02/20 08:49:50;;;;;;;14.10;3.37;;;;;;;-145.69;69.91;52323.59;5113036;28;20229;-80
2024/02/20 08:52:17;;;;;;;12.37;3.13;;;;;;;-145.69;69.81;52321.59;5113279;28;20228;-79
2024/02/20 08:54:45;;;;;;;15.30;3.80;;;;;;;-145.69;66.14;52301.81;5113381;28;20197;-79
2024/02/20 08:57:11;;;;;;;17.27;4.60;;;;;;;-145.69;70.16;52291.91;5112967;28;20189;-79
2024/02/20 08:59:38;;;;;;;14.47;4.33;;;;;;;-145.69;67.48;52309.72;5113368;28;20202;-80
2024/02/20 09:02:06;;;;;;;11.37;3.57;;;;;;;-145.69;68.89;52297.84;5113359;28;20266;-78
2024/02/20 09:04:33;;;;;;;10.47;3.57;;;;;;;-145.69;66.30;52293.88;5113214;28;20659;-79
2024/02/20 09:06:59;;;;;;;13.90;3.93;;;;;;;-145.69;66.10;52313.69;5113017;28;20227;-79
2024/02/20 09:09:26;;;;;;;7.73;2.97;;;;;;;-145.69;68.20;52331.50;5113053;28;20205;-79
2024/02/20 09:11:52;;;;;;;8.80;3.60;;;;;;;-145.69;68.82;52309.72;5113309;28;20197;-80
2024/02/20 09:14:19;;;;;;;9.70;3.40;;;;;;;-145.69;68.84;52285.97;5112891;28;20200;-79
2024/02/20 09:16:46;;;;;;;11.80;3.43;;;;;;;-145.69;69.01;52323.59;5113098;28;20273;-79
2024/02/20 09:19:15;;;;;;;17.77;3.53;;;;;;;-145.69;68.94;52317.66;5112620;28;20648;-80
2024/02/20 09:21:42;;;;;;;9.53;3.00;;;;;;;-145.69;67.97;52305.75;5111995;28;20202;-80
2024/02/20 09:24:10;;;;;;;11.83;4.03;;;;;;;-145.69;65.80;52317.66;5112579;28;20197;-79
2024/02/20 09:26:36;;;;;;;29.73;7.80;;;;;;;-145.69;65.48;52319.63;5112531;28;20636;-80
2024/02/20 09:29:03;;;;;;;22.17;7.53;;;;;;;-145.69;63.22;52301.81;5112698;28;20200;-79
2024/02/20 09:31:29;;;;;;;18.23;6.77;;;;;;;-145.69;64.34;52321.59;5112676;28;20202;-79
2024/02/20 09:33:57;;;;;;;23.03;7.43;;;;;;;-145.69;60.67;52321.59;5112773;28;20201;-81
2024/02/20 09:36:25;;;;;;;22.43;6.70;;;;;;;-145.69;63.36;52299.81;5113105;28;20205;-80
2024/02/20 09:38:51;;;;;;;17.10;5.07;;;;;;;-145.69;63.75;52327.53;5112799;28;20648;-80
2024/02/20 09:41:22;;;;;;;19.57;5.20;;;;;;;-145.69;60.90;52289.91;5112815;28;20201;-80
2024/02/20 09:43:49;;;;;;;13.40;4.30;;;;;;;-145.69;63.90;52297.84;5112767;28;20288;-80
2024/02/20 09:46:20;;;;;;;9.10;3.20;;;;;;;-145.69;60.89;52303.78;5112317;28;20220;-81
2024/02/20 09:48:49;;;;;;;11.00;3.93;;;;;;;-145.69;60.24;52285.97;5112506;28;20213;-80
2024/02/20 09:51:18;;;;;;;18.47;3.80;;;;;;;-145.69;61.59;52307.75;5112659;28;20667;-80
2024/02/20 09:53:47;;;;;;;15.38;3.58;;;;;;;-145.69;60.79;52283.97;5112639;28;20193;-80
2024/02/20 09:56:15;;;;;;;10.55;3.70;;;;;;;-145.69;59.62;52291.91;5112656;28;20259;-80
2024/02/20 09:58:42;;;;;;;12.93;3.83;;;;;;;-145.69;57.57;52293.88;5112234;28;20196;-79
2024/02/20 10:01:09;;;;;;;15.95;3.30;;;;;;;-145.69;58.53;52278.03;5112562;28;20197;-79
2024/02/20 10:03:39;;;;;;;9.18;2.95;;;;;;;-145.69;56.98;52246.34;5112728;28;20201;-79
2024/02/20 10:06:08;;;;;;;7.13;2.43;;;;;;;-145.69;55.84;52278.03;5112497;28;20231;-79
2024/02/20 10:08:35;;;;;;;12.53;2.80;;;;;;;-145.69;52.71;52293.88;5112080;28;20231;-79
2024/02/20 10:11:03;;;;;;;13.73;2.60;;;;;;;-145.69;52.14;52289.91;5111791;28;20209;-79
2024/02/20 10:13:29;;;;;;;13.70;2.87;;;;;;;-145.69;51.74;52295.84;5112451;28;20201;-79
2024/02/20 10:16:03;;;;;;;16.60;2.47;;;;;;;-145.69;50.70;52297.84;5112611;28;20204;-79
2024/02/20 10:18:30;;;;;;;10.37;2.10;;;;;;;-145.69;52.21;52276.06;5112462;28;20347;-79
2024/02/20 10:21:02;;;;;;;6.30;2.10;;;;;;;-145.69;51.98;52299.81;5109202;28;20655;-79
2024/02/20 10:23:29;;;;;;;14.07;2.53;;;;;;;-145.69;52.42;52291.91;5112220;28;20354;-79
2024/02/20 10:25:58;;;;;;;10.30;2.03;;;;;;;-145.69;53.20;52289.91;5118530;28;20709;-79
2024/02/20 10:28:26;;;;;;;9.97;2.07;;;;;;;-145.69;53.09;52285.97;5109974;28;20288;-81
2024/02/20 10:30:54;;;;;;;15.30;2.70;;;;;;;-145.69;53.37;52297.84;5112431;28;20194;-80
2024/02/20 10:33:20;;;;;;;18.00;2.30;;;;;;;-145.69;52.87;52309.72;5114188;28;20259;-80
2024/02/20 10:35:47;;;;;;;9.57;2.50;;;;;;;-145.69;53.08;52260.22;5127127;27;20532;-79
2024/02/20 10:38:19;;;;;;;9.27;2.93;;;;;;;-145.69;53.00;52276.06;5136448;27;20208;-80
2024/02/20 10:40:45;;;;;;;10.27;2.53;;;;;;;-145.69;52.31;52276.06;5136323;27;20197;-80
2024/02/20 10:43:13;;;;;;;9.33;2.23;;;;;;;-145.69;52.10;52289.91;5135127;27;20196;-81
2024/02/20 10:45:41;;;;;;;15.20;2.90;;;;;;;-145.69;51.42;52254.28;5115204;27;20312;-80
2024/02/20 10:48:10;;;;;;;9.77;2.33;;;;;;;-145.69;50.72;52248.34;5115443;28;20605;-80
2024/02/20 10:50:37;;;;;;;12.13;2.83;;;;;;;-145.69;51.27;52289.91;5114455;28;20435;-80
2024/02/20 10:53:04;;;;;;;8.67;2.20;;;;;;;-145.69;51.63;52274.06;5115459;28;20442;-81
2024/02/20 10:55:31;;;;;;;13.30;4.47;;;;;;;-145.69;52.42;52278.03;5115375;28;20212;-81
2024/02/20 10:57:59;;;;;;;11.97;2.60;;;;;;;-145.69;51.93;52274.06;5115188;28;20194;-80
2024/02/20 11:00:27;;;;;;;11.25;2.05;;;;;;;-145.69;51.98;52252.28;5114548;28;20651;-80
2024/02/20 11:02:56;;;;;;;11.65;2.10;;;;;;;-145.69;51.91;52274.06;5114543;27;20242;-80
2024/02/20 11:05:23;;;;;;;15.73;3.70;;;;;;;-145.69;50.64;52270.13;5114782;28;20280;-81
2024/02/20 11:07:50;;;;;;;15.73;3.65;;;;;;;-145.69;50.95;52285.97;5114711;28;20227;-80
2024/02/20 11:10:18;;;;;;;13.57;3.57;;;;;;;-145.69;51.49;52278.03;5115295;28;20197;-80
2024/02/20 11:12:45;;;;;;;11.93;2.67;;;;;;;-145.69;51.55;52260.22;5115268;28;20208;-80